Time;durP1;ratioP1;P1;durP2;ratioP2;P2;SDS_P1;SDS_P2;PMS_P1;PMS_P2;Temp;Humidity;BMP_temperature;BMP_pressure;BME280_temperature;BME280_humidity;BME280_pressure;Samples;Min_cycle;Max_cycle;Signal;HPM_P1;HPM_P2
2024/04/08 00:00:51;;;;;;;;;;;;;;;14.12;55.11;100241.97;5074848;28;19967;-81
2024/04/08 00:03:16;;;;;;;;;;;;;;;14.12;54.76;100228.69;5074580;28;19921;-81
2024/04/08 00:05:41;;;;;;;;;;;;;;;14.11;54.11;100232.34;5074781;28;19967;-81
2024/04/08 00:08:07;;;;;;;;;;;;;;;14.08;54.65;100236.19;5056903;28;19913;-81
2024/04/08 00:10:34;;;;;;;;;;;;;;;14.04;54.46;100240.22;5073495;28;19920;-81
2024/04/08 00:13:00;;;;;;;;;;;;;;;13.95;55.07;100234.19;5056770;28;20070;-81
2024/04/08 00:15:25;;;;;;;;;;;;;;;13.88;55.99;100235.09;5074637;28;19912;-81
2024/04/08 00:17:51;;;;;;;;;;;;;;;13.88;55.59;100235.91;5074599;28;19923;-81
2024/04/08 00:20:16;;;;;;;;;;;;;;;13.90;54.63;100227.78;5074475;28;19981;-81
2024/04/08 00:22:42;;;;;;;;;;;;;;;13.87;55.01;100231.63;5056512;28;19916;-81
2024/04/08 00:25:08;;;;;;;;;;;;;;;13.86;55.08;100231.81;5056553;28;19913;-81
2024/04/08 00:27:33;;;;;;;;;;;;;;;13.84;54.73;100237.28;5074355;28;19912;-81
2024/04/08 00:29:58;;;;;;;;;;;;;;;13.80;55.82;100224.56;5056039;28;19912;-81
2024/04/08 00:32:23;;;;;;;;;;;;;;;13.75;56.27;100222.47;5056275;28;19922;-81
2024/04/08 00:34:49;;;;;;;;;;;;;;;13.76;55.48;100208.19;5056192;28;19913;-81
2024/04/08 00:37:14;;;;;;;;;;;;;;;13.77;54.69;100215.13;5074778;28;19996;-81
2024/04/08 00:39:39;;;;;;;;;;;;;;;13.74;54.84;100215.50;5056352;28;19920;-81
2024/04/08 00:42:05;;;;;;;;;;;;;;;13.74;54.91;100214.69;5074222;28;20330;-81
2024/04/08 00:44:30;;;;;;;;;;;;;;;13.71;55.34;100215.03;5056230;28;20375;-81
2024/04/08 00:46:56;;;;;;;;;;;;;;;13.67;55.27;100210.09;5074306;28;19917;-81
2024/04/08 00:49:22;;;;;;;;;;;;;;;13.61;55.66;100216.13;5073737;28;19970;-82
2024/04/08 00:51:47;;;;;;;;;;;;;;;13.58;55.90;100218.31;5073672;28;20389;-82
2024/04/08 00:54:13;;;;;;;;;;;;;;;13.55;55.71;100224.00;5055854;28;19927;-82
2024/04/08 00:56:39;;;;;;;;;;;;;;;13.55;55.65;100213.38;5073773;28;19919;-82
2024/04/08 00:59:06;;;;;;;;;;;;;;;13.53;55.32;100218.88;5055877;28;19916;-82
2024/04/08 01:01:31;;;;;;;;;;;;;;;13.50;55.99;100219.22;5072480;28;20372;-82
2024/04/08 01:03:58;;;;;;;;;;;;;;;13.46;55.50;100209.16;5073562;28;19924;-82
2024/04/08 01:06:23;;;;;;;;;;;;;;;13.32;55.30;100219.53;5073660;28;19920;-82
2024/04/08 01:08:49;;;;;;;;;;;;;;;13.25;56.44;100221.25;5073713;28;19913;-82
2024/04/08 01:11:14;;;;;;;;;;;;;;;13.24;55.86;100219.59;5073653;28;19913;-82
2024/04/08 01:13:40;;;;;;;;;;;;;;;13.19;55.56;100219.31;5073317;28;19916;-82
2024/04/08 01:16:05;;;;;;;;;;;;;;;13.14;55.38;100216.34;5073288;28;20316;-82
2024/04/08 01:18:30;;;;;;;;;;;;;;;13.11;54.95;100223.81;5073425;28;20418;-82
2024/04/08 01:20:56;;;;;;;;;;;;;;;13.00;55.44;100233.84;5073368;28;19920;-81
2024/04/08 01:23:24;;;;;;;;;;;;;;;12.97;55.69;100222.75;5073614;28;19951;-82
2024/04/08 01:25:49;;;;;;;;;;;;;;;12.94;55.68;100229.25;5073323;28;19948;-82
2024/04/08 01:28:14;;;;;;;;;;;;;;;12.92;55.67;100228.59;5055214;28;19962;-83
2024/04/08 01:30:41;;;;;;;;;;;;;;;12.88;56.00;100227.31;5072989;28;19970;-83
2024/04/08 01:33:07;;;;;;;;;;;;;;;12.88;55.60;100226.47;5073389;28;20388;-82
2024/04/08 01:35:32;;;;;;;;;;;;;;;12.84;56.14;100233.13;5073048;28;19913;-83
2024/04/08 01:37:57;;;;;;;;;;;;;;;12.84;55.54;100233.13;5073224;28;19912;-83
2024/04/08 01:40:22;;;;;;;;;;;;;;;12.78;55.22;100223.22;5055086;28;20010;-83
2024/04/08 01:42:48;;;;;;;;;;;;;;;12.80;55.08;100223.88;5072954;28;20426;-82
2024/04/08 01:45:13;;;;;;;;;;;;;;;12.81;55.43;100222.88;5072982;28;19909;-82
2024/04/08 01:47:38;;;;;;;;;;;;;;;12.81;55.06;100229.00;5072855;28;19916;-82
2024/04/08 01:50:05;;;;;;;;;;;;;;;12.80;55.85;100232.66;5054890;28;19922;-82
2024/04/08 01:52:30;;;;;;;;;;;;;;;12.84;55.06;100226.00;5055205;28;20416;-82
2024/04/08 01:54:55;;;;;;;;;;;;;;;12.82;55.13;100224.53;5072705;28;19913;-82
2024/04/08 01:57:21;;;;;;;;;;;;;;;12.78;55.26;100221.41;5072555;28;19912;-82
2024/04/08 01:59:46;;;;;;;;;;;;;;;12.74;54.83;100214.81;5072451;28;19916;-83
2024/04/08 02:02:11;;;;;;;;;;;;;;;12.69;55.34;100223.28;5071787;28;19919;-83
2024/04/08 02:04:36;;;;;;;;;;;;;;;12.60;55.45;100219.00;5072369;28;19996;-82
2024/04/08 02:07:02;;;;;;;;;;;;;;;12.60;55.29;100226.94;5072409;28;20355;-82
2024/04/08 02:09:27;;;;;;;;;;;;;;;12.60;55.30;100229.59;5072450;28;19919;-82
2024/04/08 02:11:52;;;;;;;;;;;;;;;12.57;55.30;100219.34;5072581;28;20020;-83
2024/04/08 02:14:17;;;;;;;;;;;;;;;12.58;55.28;100220.19;5072113;28;19916;-83
2024/04/08 02:16:43;;;;;;;;;;;;;;;12.57;54.79;100227.28;5072131;28;20351;-83
2024/04/08 02:19:08;;;;;;;;;;;;;;;12.53;55.22;100227.81;5072104;28;19917;-83
2024/04/08 02:21:33;;;;;;;;;;;;;;;12.51;55.20;100230.66;5072202;28;20387;-82
2024/04/08 02:23:58;;;;;;;;;;;;;;;12.47;55.61;100224.03;5072155;28;19904;-82
2024/04/08 02:26:24;;;;;;;;;;;;;;;12.44;55.28;100236.81;5072152;28;19912;-83
2024/04/08 02:28:49;;;;;;;;;;;;;;;12.29;55.30;100234.88;5072097;28;20492;-82
2024/04/08 02:31:15;;;;;;;;;;;;;;;12.31;55.24;100229.41;5072100;28;20309;-83
2024/04/08 02:33:40;;;;;;;;;;;;;;;12.28;55.37;100233.25;5071880;28;19923;-82
2024/04/08 02:36:06;;;;;;;;;;;;;;;12.27;56.21;100233.41;5071836;28;20344;-82
2024/04/08 02:38:31;;;;;;;;;;;;;;;12.26;55.66;100227.28;5071922;28;19921;-83
2024/04/08 02:40:57;;;;;;;;;;;;;;;12.27;55.91;100231.59;5071824;28;20006;-82
2024/04/08 02:43:22;;;;;;;;;;;;;;;12.32;55.81;100226.59;5071894;28;19918;-83
2024/04/08 02:45:48;;;;;;;;;;;;;;;12.33;55.33;100230.91;5071845;28;19966;-82
2024/04/08 02:48:15;;;;;;;;;;;;;;;12.35;55.83;100230.72;5054312;28;20388;-82
2024/04/08 02:50:40;;;;;;;;;;;;;;;12.36;55.23;100235.03;5071707;28;19912;-82
2024/04/08 02:53:06;;;;;;;;;;;;;;;12.33;55.42;100227.41;5071625;28;19918;-82
2024/04/08 02:55:31;;;;;;;;;;;;;;;12.33;55.25;100232.72;5053559;28;20335;-83
2024/04/08 02:57:56;;;;;;;;;;;;;;;12.34;54.84;100237.03;5071646;28;19912;-82
2024/04/08 03:00:21;;;;;;;;;;;;;;;12.33;55.94;100238.00;5071343;28;20346;-82
2024/04/08 03:02:46;;;;;;;;;;;;;;;12.32;54.95;100239.84;5071623;28;20020;-82
2024/04/08 03:05:12;;;;;;;;;;;;;;;12.27;55.25;100234.22;5071801;28;19913;-82
2024/04/08 03:07:37;;;;;;;;;;;;;;;12.26;55.64;100237.06;5071654;28;20414;-82
2024/04/08 03:10:04;;;;;;;;;;;;;;;12.27;54.92;100236.06;5071449;28;19904;-83
2024/04/08 03:12:29;;;;;;;;;;;;;;;12.23;55.37;100232.94;5053560;28;19995;-82
2024/04/08 03:14:55;;;;;;;;;;;;;;;12.23;55.34;100234.75;5074541;28;20013;-83
2024/04/08 03:17:20;;;;;;;;;;;;;;;12.22;55.38;100241.03;5075709;28;20304;-83
2024/04/08 03:19:45;;;;;;;;;;;;;;;12.18;56.03;100242.38;5057784;28;19924;-83
2024/04/08 03:22:11;;;;;;;;;;;;;;;12.15;55.74;100242.72;5075688;28;20377;-82
2024/04/08 03:24:36;;;;;;;;;;;;;;;12.15;56.21;100240.91;5075782;28;19916;-82
2024/04/08 03:27:01;;;;;;;;;;;;;;;12.09;56.00;100241.59;5075607;28;19919;-82
2024/04/08 03:29:26;;;;;;;;;;;;;;;12.11;55.88;100242.25;5057565;28;19920;-82
2024/04/08 03:31:52;;;;;;;;;;;;;;;12.08;55.42;100235.47;5075597;28;20367;-82
2024/04/08 03:34:17;;;;;;;;;;;;;;;12.07;55.67;100239.09;5075536;28;19923;-82
2024/04/08 03:36:42;;;;;;;;;;;;;;;12.06;56.23;100244.56;5075449;28;19912;-83
2024/04/08 03:39:08;;;;;;;;;;;;;;;12.04;56.18;100242.09;5075311;28;19916;-82
2024/04/08 03:41:33;;;;;;;;;;;;;;;12.02;56.86;100244.09;5073970;28;19919;-82
2024/04/08 03:43:58;;;;;;;;;;;;;;;12.04;55.98;100236.81;5075294;28;19970;-82
2024/04/08 03:46:24;;;;;;;;;;;;;;;12.03;55.81;100243.09;5075274;28;19912;-82
2024/04/08 03:48:49;;;;;;;;;;;;;;;11.99;55.78;100249.72;5075086;28;20003;-82
2024/04/08 03:51:16;;;;;;;;;;;;;;;11.96;56.58;100258.00;5075151;28;19908;-82
2024/04/08 03:53:41;;;;;;;;;;;;;;;11.98;56.71;100266.59;5074973;28;20419;-82
2024/04/08 03:56:10;;;;;;;;;;;;;;;12.00;56.08;100261.97;5056940;28;19912;-83
2024/04/08 03:58:39;;;;;;;;;;;;;;;12.03;56.04;100266.91;5074845;28;20069;-82
2024/04/08 04:01:04;;;;;;;;;;;;;;;12.02;55.89;100267.91;5056919;28;19912;-82
2024/04/08 04:03:30;;;;;;;;;;;;;;;12.03;56.35;100276.69;5056797;28;19928;-82
2024/04/08 04:05:55;;;;;;;;;;;;;;;12.04;56.04;100281.81;5056841;28;19913;-82
2024/04/08 04:08:20;;;;;;;;;;;;;;;12.07;55.42;100281.47;5073359;28;20355;-83
2024/04/08 04:10:46;;;;;;;;;;;;;;;12.06;56.75;100279.81;5074615;28;19916;-82
2024/04/08 04:13:11;;;;;;;;;;;;;;;12.09;56.04;100281.28;5074711;28;19918;-82
2024/04/08 04:15:37;;;;;;;;;;;;;;;12.14;56.03;100286.91;5056609;28;20006;-82
2024/04/08 04:18:02;;;;;;;;;;;;;;;12.18;56.71;100284.75;5073216;28;19912;-82
2024/04/08 04:20:37;;;;;;;;;;;;;;;12.24;56.12;100286.69;5073249;28;19923;-82
2024/04/08 04:23:02;;;;;;;;;;;;;;;12.30;56.05;100278.06;5056562;28;19918;-83
2024/04/08 04:25:27;;;;;;;;;;;;;;;12.32;56.26;100278.72;5073580;28;19999;-82
2024/04/08 04:27:53;;;;;;;;;;;;;;;12.40;57.36;100278.69;5074562;28;19916;-83
2024/04/08 04:30:18;;;;;;;;;;;;;;;12.46;56.44;100283.31;5074197;28;20019;-82
2024/04/08 04:32:43;;;;;;;;;;;;;;;12.43;60.19;100286.31;5074191;28;20062;-82
2024/04/08 04:35:09;;;;;;;;;;;;;;;12.46;58.00;100291.25;5056161;28;19913;-83
2024/04/08 04:37:34;;;;;;;;;;;;;;;12.54;58.97;100288.56;5074296;28;20295;-82
2024/04/08 04:39:59;;;;;;;;;;;;;;;12.48;59.32;100285.78;5073952;28;20511;-82
2024/04/08 04:42:24;;;;;;;;;;;;;;;12.56;59.25;100285.75;5074130;28;19913;-83
2024/04/08 04:44:50;;;;;;;;;;;;;;;12.67;58.00;100288.88;5074147;28;20046;-83
2024/04/08 04:47:15;;;;;;;;;;;;;;;12.72;57.63;100281.22;5074391;28;20355;-82
2024/04/08 04:49:41;;;;;;;;;;;;;;;12.72;58.39;100291.00;5072513;28;20369;-82
2024/04/08 04:52:06;;;;;;;;;;;;;;;12.68;60.83;100289.69;5055915;28;19919;-83
2024/04/08 04:54:31;;;;;;;;;;;;;;;12.57;59.54;100290.88;5073873;28;20388;-83
2024/04/08 04:56:56;;;;;;;;;;;;;;;12.61;59.25;100283.41;5074113;28;19909;-82
2024/04/08 04:59:22;;;;;;;;;;;;;;;12.61;58.14;100276.28;5073815;28;19921;-82
2024/04/08 05:01:48;;;;;;;;;;;;;;;12.58;61.96;100287.22;5073874;28;20439;-83
2024/04/08 05:04:13;;;;;;;;;;;;;;;12.58;60.48;100281.94;5055599;28;19922;-83
2024/04/08 05:06:39;;;;;;;;;;;;;;;12.63;59.14;100282.28;5055485;28;19996;-82
2024/04/08 05:09:05;;;;;;;;;;;;;;;12.69;61.06;100278.91;5059774;28;20354;-82
2024/04/08 05:11:30;;;;;;;;;;;;;;;12.76;61.75;100287.00;5093521;28;19920;-83
2024/04/08 05:13:56;;;;;;;;;;;;;;;12.86;60.22;100281.47;5075338;28;19920;-82
2024/04/08 05:16:21;;;;;;;;;;;;;;;13.00;60.21;100283.38;5093402;28;19965;-82
2024/04/08 05:18:47;;;;;;;;;;;;;;;13.13;59.90;100282.78;5093378;28;19916;-82
2024/04/08 05:21:12;;;;;;;;;;;;;;;13.24;60.13;100279.75;5075433;28;20006;-82
2024/04/08 05:23:38;;;;;;;;;;;;;;;13.35;60.35;100290.78;5093457;28;19912;-83
2024/04/08 05:26:04;;;;;;;;;;;;;;;13.47;60.50;100280.59;5075271;28;19912;-82
2024/04/08 05:28:29;;;;;;;;;;;;;;;13.58;60.03;100287.31;5093349;28;19919;-82
2024/04/08 05:30:55;;;;;;;;;;;;;;;13.68;60.94;100287.88;5074967;28;19995;-82
2024/04/08 05:33:20;;;;;;;;;;;;;;;13.75;61.24;100285.34;5093303;28;19926;-82
2024/04/08 05:35:46;;;;;;;;;;;;;;;13.80;59.79;100283.78;5093412;28;19912;-82
2024/04/08 05:38:12;;;;;;;;;;;;;;;13.89;57.61;100284.53;5074899;28;19961;-82
2024/04/08 05:40:38;;;;;;;;;;;;;;;13.95;60.00;100281.97;5092942;28;19919;-82
2024/04/08 05:43:04;;;;;;;;;;;;;;;14.08;59.50;100285.81;5074587;28;19912;-83
2024/04/08 05:45:29;;;;;;;;;;;;;;;14.14;60.36;100279.81;5092891;28;19916;-81
2024/04/08 05:47:55;;;;;;;;;;;;;;;14.26;60.06;100291.63;5092940;28;19919;-82
2024/04/08 05:50:20;;;;;;;;;;;;;;;14.31;58.96;100290.06;5073888;28;19920;-82
2024/04/08 05:52:46;;;;;;;;;;;;;;;14.37;59.97;100290.34;5092581;28;19965;-82
2024/04/08 05:55:11;;;;;;;;;;;;;;;14.46;60.95;100294.56;5092539;28;20315;-81
2024/04/08 05:57:37;;;;;;;;;;;;;;;14.54;56.98;100294.47;5092716;28;19951;-81
2024/04/08 06:00:02;;;;;;;;;;;;;;;14.60;61.44;100296.38;5092058;28;19924;-82
2024/04/08 06:02:27;;;;;;;;;;;;;;;14.65;59.78;100287.84;5073664;28;20004;-81
2024/04/08 06:04:53;;;;;;;;;;;;;;;14.71;58.14;100303.06;5092496;28;20488;-80
2024/04/08 06:07:18;;;;;;;;;;;;;;;14.75;59.01;100307.00;5091639;28;19912;-81
2024/04/08 06:09:44;;;;;;;;;;;;;;;14.82;58.99;100307.91;5092647;28;19912;-82
2024/04/08 06:12:09;;;;;;;;;;;;;;;14.91;57.86;100307.63;5092834;28;19919;-81
2024/04/08 06:14:34;;;;;;;;;;;;;;;15.00;59.86;100305.69;5092761;28;20384;-82
2024/04/08 06:16:59;;;;;;;;;;;;;;;15.09;59.06;100311.72;5092734;28;19912;-81
2024/04/08 06:19:25;;;;;;;;;;;;;;;15.17;58.50;100308.94;5091367;28;19916;-81
2024/04/08 06:21:50;;;;;;;;;;;;;;;15.29;58.51;100301.25;5092515;28;19948;-80
2024/04/08 06:24:15;;;;;;;;;;;;;;;15.41;59.33;100305.88;5092178;28;19975;-81
2024/04/08 06:26:41;;;;;;;;;;;;;;;15.50;57.43;100317.22;5092288;28;19935;-81
2024/04/08 06:29:06;;;;;;;;;;;;;;;15.57;57.38;100312.78;5079019;28;19916;-81
2024/04/08 06:31:32;;;;;;;;;;;;;;;15.54;59.56;100324.63;5073962;28;19912;-81
2024/04/08 06:33:57;;;;;;;;;;;;;;;15.56;57.51;100317.28;5092109;28;20030;-81
2024/04/08 06:36:22;;;;;;;;;;;;;;;15.60;58.36;100320.41;5092268;28;20008;-81
2024/04/08 06:38:48;;;;;;;;;;;;;;;15.64;56.70;100316.38;5091774;28;19912;-81
2024/04/08 06:41:15;;;;;;;;;;;;;;;15.68;58.40;100328.31;5092057;28;19930;-81
2024/04/08 06:43:40;;;;;;;;;;;;;;;15.71;57.86;100322.59;5091788;28;19916;-80
2024/04/08 06:46:05;;;;;;;;;;;;;;;15.79;56.16;100325.13;5091683;28;20026;-80
2024/04/08 06:48:31;;;;;;;;;;;;;;;15.81;59.14;100324.91;5091428;28;19951;-80
2024/04/08 06:50:57;;;;;;;;;;;;;;;15.93;56.29;100317.22;5091895;28;19916;-81
2024/04/08 06:53:23;;;;;;;;;;;;;;;16.02;57.20;100310.72;5073081;28;19912;-82
2024/04/08 06:55:49;;;;;;;;;;;;;;;16.09;58.13;100316.94;5072865;28;19981;-81
2024/04/08 06:58:18;;;;;;;;;;;;;;;16.18;58.27;100319.25;5091204;28;19920;-81
2024/04/08 07:00:45;;;;;;;;;;;;;;;16.26;58.83;100315.59;5091467;28;19926;-79
2024/04/08 07:03:10;;;;;;;;;;;;;;;16.38;57.73;100315.91;5091797;28;20358;-80
2024/04/08 07:05:35;;;;;;;;;;;;;;;16.52;56.50;100318.44;5091635;28;19912;-80
2024/04/08 07:08:00;;;;;;;;;;;;;;;16.65;56.62;100327.53;5091792;28;19912;-81
2024/04/08 07:10:26;;;;;;;;;;;;;;;16.79;56.36;100318.59;5091546;28;20328;-81
2024/04/08 07:12:51;;;;;;;;;;;;;;;16.92;56.28;100323.13;5091556;28;19924;-80
2024/04/08 07:15:19;;;;;;;;;;;;;;;16.99;56.70;100323.97;5091173;28;19915;-81
2024/04/08 07:17:44;;;;;;;;;;;;;;;17.03;54.44;100322.56;5090511;28;19920;-80
2024/04/08 07:20:10;;;;;;;;;;;;;;;17.08;54.22;100328.94;5091395;28;20323;-80
2024/04/08 07:22:36;;;;;;;;;;;;;;;17.09;54.53;100321.75;5091419;28;19912;-81
2024/04/08 07:25:01;;;;;;;;;;;;;;;17.12;55.72;100327.53;5073391;28;19918;-80
2024/04/08 07:27:26;;;;;;;;;;;;;;;17.22;55.34;100335.16;5091290;28;19908;-80
2024/04/08 07:29:52;;;;;;;;;;;;;;;17.36;54.14;100325.31;5073240;28;19946;-81
2024/04/08 07:32:17;;;;;;;;;;;;;;;17.41;55.08;100323.69;5073301;28;19912;-80
2024/04/08 07:34:44;;;;;;;;;;;;;;;17.48;54.84;100329.88;5073252;28;19920;-81
2024/04/08 07:37:09;;;;;;;;;;;;;;;17.53;54.76;100331.09;5072722;28;19935;-80
2024/04/08 07:39:34;;;;;;;;;;;;;;;17.61;54.31;100331.72;5072906;28;20385;-81
2024/04/08 07:41:59;;;;;;;;;;;;;;;17.62;53.89;100340.56;5090763;28;19920;-81
2024/04/08 07:44:25;;;;;;;;;;;;;;;17.66;53.88;100341.78;5090571;28;20120;-80
2024/04/08 07:46:50;;;;;;;;;;;;;;;17.63;52.67;100337.69;5090933;28;20316;-81
2024/04/08 07:49:15;;;;;;;;;;;;;;;17.70;53.05;100338.53;5089387;28;20369;-80
2024/04/08 07:51:40;;;;;;;;;;;;;;;17.77;53.05;100334.00;5090479;28;19916;-81
2024/04/08 07:54:06;;;;;;;;;;;;;;;17.86;52.85;100337.34;5091161;28;19918;-81
2024/04/08 07:56:31;;;;;;;;;;;;;;;17.96;53.61;100337.75;5090921;28;19916;-81
2024/04/08 07:58:56;;;;;;;;;;;;;;;17.89;50.83;100333.44;5072769;28;19912;-81
2024/04/08 08:01:21;;;;;;;;;;;;;;;17.27;51.83;100235.81;5075384;28;19946;-81
2024/04/08 08:03:47;;;;;;;;;;;;;;;17.89;51.13;100334.25;5093980;28;19920;-80
2024/04/08 08:06:13;;;;;;;;;;;;;;;18.03;51.37;100329.72;5088512;28;20297;-81
2024/04/08 08:08:39;;;;;;;;;;;;;;;18.01;51.33;100321.91;5091171;28;19916;-80
2024/04/08 08:11:04;;;;;;;;;;;;;;;18.05;51.34;100327.66;5094648;28;19970;-79
2024/04/08 08:13:33;;;;;;;;;;;;;;;18.15;49.55;100322.72;5094029;28;20355;-80
2024/04/08 08:15:59;;;;;;;;;;;;;;;18.21;49.68;100319.19;5093209;28;20003;-81
2024/04/08 08:18:24;;;;;;;;;;;;;;;18.35;49.76;100320.00;5084020;28;19916;-82
2024/04/08 08:20:53;;;;;;;;;;;;;;;18.47;49.95;100322.84;5090842;28;19924;-81
2024/04/08 08:23:19;;;;;;;;;;;;;;;18.57;49.35;100318.69;5075580;28;20005;-82
2024/04/08 08:25:45;;;;;;;;;;;;;;;18.68;48.48;100325.28;5066094;28;19954;-80
2024/04/08 08:28:11;;;;;;;;;;;;;;;18.76;46.04;100321.56;5093855;28;19955;-80
2024/04/08 08:30:36;;;;;;;;;;;;;;;18.89;47.10;100319.66;5074731;28;20425;-79
2024/04/08 08:33:02;;;;;;;;;;;;;;;18.98;46.55;100325.56;5055925;28;20396;-80
2024/04/08 08:35:27;;;;;;;;;;;;;;;19.12;45.54;100316.44;5076147;28;20408;-79
2024/04/08 08:37:52;;;;;;;;;;;;;;;19.33;46.24;100320.66;5064612;28;20320;-80
2024/04/08 08:40:20;;;;;;;;;;;;;;;19.55;45.91;100316.63;5090991;28;20316;-79
2024/04/08 08:42:48;;;;;;;;;;;;;;;19.75;45.03;100327.19;5075664;28;19959;-78
2024/04/08 08:45:14;;;;;;;;;;;;;;;19.93;43.66;100319.19;5094158;28;19920;-79
2024/04/08 08:47:39;;;;;;;;;;;;;;;20.10;45.11;100332.06;5074634;28;19916;-80
2024/04/08 08:50:05;;;;;;;;;;;;;;;20.22;42.38;100319.56;5090071;28;19989;-79
2024/04/08 08:52:31;;;;;;;;;;;;;;;20.30;44.26;100321.94;5083144;28;20351;-79
2024/04/08 08:54:56;;;;;;;;;;;;;;;20.49;42.80;100314.75;5074260;28;19946;-80
2024/04/08 08:57:22;;;;;;;;;;;;;;;20.64;43.41;100323.25;5078094;28;19925;-80
2024/04/08 08:59:49;;;;;;;;;;;;;;;20.82;40.26;100322.44;5091212;28;19974;-80
2024/04/08 09:02:15;;;;;;;;;;;;;;;20.99;39.74;100319.94;5068610;28;19955;-81
2024/04/08 09:04:43;;;;;;;;;;;;;;;20.96;41.10;100315.03;5089325;28;19971;-80
2024/04/08 09:07:08;;;;;;;;;;;;;;;21.16;39.58;100311.00;5092381;28;19969;-80
2024/04/08 09:09:34;;;;;;;;;;;;;;;21.40;40.99;100316.47;5074025;28;19916;-80
2024/04/08 09:11:59;;;;;;;;;;;;;;;21.51;41.07;100302.25;5086657;28;20401;-80
2024/04/08 09:14:27;;;;;;;;;;;;;;;21.70;40.67;100311.06;5055735;28;19922;-81
2024/04/08 09:17:02;;;;;;;;;;;;;;;21.86;39.72;100307.69;5081094;28;19958;-80
2024/04/08 09:19:28;;;;;;;;;;;;;;;22.05;39.38;100305.75;5089705;28;20437;-80
2024/04/08 09:21:53;;;;;;;;;;;;;;;22.15;39.39;100303.28;5069627;28;19974;-80
2024/04/08 09:24:18;;;;;;;;;;;;;;;22.25;39.23;100300.81;5092056;28;19923;-80
2024/04/08 09:26:43;;;;;;;;;;;;;;;22.33;39.09;100294.28;5092744;28;19908;-79
2024/04/08 09:29:09;;;;;;;;;;;;;;;22.32;38.10;100295.34;5092022;28;19919;-80
2024/04/08 09:31:34;;;;;;;;;;;;;;;22.41;37.55;100283.97;5075055;28;19965;-79
2024/04/08 09:33:59;;;;;;;;;;;;;;;22.62;36.64;100285.19;5086781;28;19920;-80
2024/04/08 09:36:25;;;;;;;;;;;;;;;22.82;37.11;100291.00;5060296;28;19923;-79
2024/04/08 09:38:50;;;;;;;;;;;;;;;23.04;36.78;100290.34;5072745;28;19970;-80
2024/04/08 09:41:17;;;;;;;;;;;;;;;23.06;35.76;100280.16;5071551;28;19912;-80
2024/04/08 09:43:42;;;;;;;;;;;;;;;23.15;34.78;100273.31;5054663;28;19913;-80
2024/04/08 09:46:09;;;;;;;;;;;;;;;23.28;37.13;100280.28;5078320;28;20002;-79
2024/04/08 09:48:35;;;;;;;;;;;;;;;23.35;35.79;100276.38;5090293;28;19969;-80
2024/04/08 09:51:00;;;;;;;;;;;;;;;23.56;34.83;100271.34;5073547;28;19920;-79
2024/04/08 09:53:32;;;;;;;;;;;;;;;23.74;33.81;100279.97;5091232;28;19911;-79
2024/04/08 09:56:02;;;;;;;;;;;;;;;23.83;34.10;100269.63;5092671;28;19944;-79
2024/04/08 09:58:31;;;;;;;;;;;;;;;23.92;32.13;100276.22;5092521;28;19912;-79
2024/04/08 10:00:57;;;;;;;;;;;;;;;24.05;31.53;100269.66;5089060;28;19920;-79
2024/04/08 10:03:26;;;;;;;;;;;;;;;24.18;32.04;100271.19;5090941;28;19924;-79
2024/04/08 10:05:52;;;;;;;;;;;;;;;24.49;30.58;100265.13;5088024;28;20404;-80
2024/04/08 10:08:17;;;;;;;;;;;;;;;24.69;30.45;100260.00;5092093;28;19916;-80
2024/04/08 10:10:43;;;;;;;;;;;;;;;24.76;32.54;100251.69;5066404;28;19927;-79
2024/04/08 10:13:09;;;;;;;;;;;;;;;24.97;32.91;100248.16;5063428;28;19916;-79
2024/04/08 10:15:36;;;;;;;;;;;;;;;25.18;28.55;100241.06;5069894;28;19967;-79
2024/04/08 10:18:03;;;;;;;;;;;;;;;25.23;32.87;100251.09;5079551;28;20010;-79
2024/04/08 10:20:28;;;;;;;;;;;;;;;25.20;29.39;100241.59;5072526;28;19927;-78
2024/04/08 10:22:54;;;;;;;;;;;;;;;25.39;30.00;100236.66;5087863;28;19916;-79
2024/04/08 10:25:36;;;;;;;;;;;;;;;25.55;29.73;100232.19;5072602;28;20007;-78
2024/04/08 10:28:05;;;;;;;;;;;;;;;25.69;29.03;100227.97;5079065;28;19916;-79
2024/04/08 10:30:33;;;;;;;;;;;;;;;25.83;26.27;100231.03;5088822;28;19960;-79
2024/04/08 10:33:00;;;;;;;;;;;;;;;25.95;28.48;100218.13;5090916;28;19916;-79
2024/04/08 10:35:25;;;;;;;;;;;;;;;26.08;28.08;100219.56;5091988;28;20429;-80
2024/04/08 10:37:50;;;;;;;;;;;;;;;26.00;27.50;100228.16;5091931;28;19947;-79
2024/04/08 10:40:15;;;;;;;;;;;;;;;26.07;28.00;100209.81;5092219;28;19916;-78
2024/04/08 10:42:40;;;;;;;;;;;;;;;26.31;29.10;100204.75;5072150;28;20056;-80
2024/04/08 10:45:06;;;;;;;;;;;;;;;26.52;30.08;100207.28;5084788;28;19916;-79
2024/04/08 10:47:32;;;;;;;;;;;;;;;26.68;27.17;100204.63;5090101;28;20016;-81
2024/04/08 10:49:58;;;;;;;;;;;;;;;26.77;26.86;100203.03;5105374;28;20376;-79
2024/04/08 10:52:23;;;;;;;;;;;;;;;26.86;27.46;100196.81;5085705;28;19918;-80
2024/04/08 10:54:48;;;;;;;;;;;;;;;26.92;26.99;100194.94;5091793;28;20400;-79
2024/04/08 10:57:13;;;;;;;;;;;;;;;26.88;26.18;100186.53;5087464;28;19966;-79
2024/04/08 10:59:39;;;;;;;;;;;;;;;26.90;25.65;100191.69;5073174;28;19920;-80
2024/04/08 11:02:13;;;;;;;;;;;;;;;26.92;24.87;100186.81;5088350;28;20406;-80
2024/04/08 11:04:38;;;;;;;;;;;;;;;26.91;25.34;100187.88;5077514;28;19964;-80
2024/04/08 11:07:04;;;;;;;;;;;;;;;26.83;28.10;100186.53;5074380;28;19916;-80
2024/04/08 11:09:29;;;;;;;;;;;;;;;27.00;26.35;100188.19;5091765;28;20433;-80
2024/04/08 11:11:54;;;;;;;;;;;;;;;27.01;27.02;100177.06;5091944;28;19965;-80
2024/04/08 11:14:19;;;;;;;;;;;;;;;27.13;25.19;100188.47;5091367;28;19919;-80
2024/04/08 11:16:45;;;;;;;;;;;;;;;27.33;26.89;100173.25;5091655;28;19965;-80
2024/04/08 11:19:10;;;;;;;;;;;;;;;27.42;25.30;100182.47;5091476;28;19912;-80
2024/04/08 11:21:35;;;;;;;;;;;;;;;27.59;23.85;100177.59;5089148;28;19923;-80
2024/04/08 11:24:01;;;;;;;;;;;;;;;27.69;26.78;100171.34;5075094;28;19912;-81
2024/04/08 11:26:30;;;;;;;;;;;;;;;27.63;24.74;100172.44;5071281;28;20038;-78
2024/04/08 11:28:59;;;;;;;;;;;;;;;27.81;25.33;100172.66;5091472;28;20003;-77
2024/04/08 11:31:24;;;;;;;;;;;;;;;28.00;26.04;100158.47;5070410;28;19916;-78
2024/04/08 11:33:49;;;;;;;;;;;;;;;28.07;25.43;100148.13;5076610;28;20311;-78
2024/04/08 11:36:14;;;;;;;;;;;;;;;28.01;26.53;100147.34;5076210;28;19946;-79
2024/04/08 11:38:45;;;;;;;;;;;;;;;28.04;26.37;100144.06;5082865;28;19916;-79
2024/04/08 11:41:10;;;;;;;;;;;;;;;28.09;25.46;100151.38;5095156;28;19924;-77
2024/04/08 11:43:36;;;;;;;;;;;;;;;28.17;25.55;100145.38;5088875;28;19922;-78
2024/04/08 11:46:02;;;;;;;;;;;;;;;28.29;24.33;100139.66;5095068;28;19999;-79
2024/04/08 11:48:27;;;;;;;;;;;;;;;28.24;25.37;100140.50;5084177;28;19956;-78
2024/04/08 11:50:52;;;;;;;;;;;;;;;28.30;26.57;100139.38;5072983;28;19958;-78
2024/04/08 11:53:18;;;;;;;;;;;;;;;28.23;25.13;100136.13;5093164;28;19915;-79
2024/04/08 11:55:44;;;;;;;;;;;;;;;28.22;25.09;100130.94;5073880;28;20448;-78
2024/04/08 11:58:09;;;;;;;;;;;;;;;28.30;25.18;100133.94;5078539;28;19924;-79
2024/04/08 12:00:35;;;;;;;;;;;;;;;28.29;23.98;100128.78;5075638;28;20383;-78
2024/04/08 12:03:00;;;;;;;;;;;;;;;28.23;22.70;100119.00;5072762;28;20007;-77
2024/04/08 12:05:25;;;;;;;;;;;;;;;28.23;23.15;100119.00;5076704;28;19912;-79
2024/04/08 12:07:51;;;;;;;;;;;;;;;28.23;21.06;100119.84;5093750;28;19916;-79
2024/04/08 12:10:16;;;;;;;;;;;;;;;28.15;24.54;100113.06;5074847;28;19916;-78
2024/04/08 12:14:10;;;;;;;;;;;;;;;28.24;21.79;100105.19;5554046;25;19927;-78
2024/04/08 12:16:35;;;;;;;;;;;;;;;28.22;22.01;100095.66;5481606;25;20325;-78
2024/04/08 12:19:01;;;;;;;;;;;;;;;28.24;24.22;100090.78;5492780;25;19927;-79
2024/04/08 12:21:26;;;;;;;;;;;;;;;28.22;24.65;100096.47;5508351;26;20325;-78
2024/04/08 12:23:53;;;;;;;;;;;;;;;28.18;24.13;100095.41;5513866;25;20034;-77
2024/04/08 12:26:19;;;;;;;;;;;;;;;28.15;21.91;100096.78;5478902;26;19936;-77
2024/04/08 12:28:44;;;;;;;;;;;;;;;28.02;22.13;100093.88;5491939;25;19931;-78